sensor_id;sensor_type;location;lat;lon;timestamp;pressure;altitude;pressure_sealevel;temperature
66170;BMP280;52971;44.024;20.456;2022-11-15T00:01:43;98420.97;;;7.85
66170;BMP280;52971;44.024;20.456;2022-11-15T00:04:09;98422.28;;;7.93
66170;BMP280;52971;44.024;20.456;2022-11-15T00:06:35;98414.88;;;8.05
66170;BMP280;52971;44.024;20.456;2022-11-15T00:09:01;98412.22;;;8.10
66170;BMP280;52971;44.024;20.456;2022-11-15T00:11:26;98409.28;;;8.12
66170;BMP280;52971;44.024;20.456;2022-11-15T00:13:56;98405.28;;;8.24
66170;BMP280;52971;44.024;20.456;2022-11-15T00:16:23;98416.91;;;8.23
66170;BMP280;52971;44.024;20.456;2022-11-15T00:18:48;98409.84;;;8.09
66170;BMP280;52971;44.024;20.456;2022-11-15T00:21:14;98406.59;;;8.27
66170;BMP280;52971;44.024;20.456;2022-11-15T00:23:40;98411.31;;;8.35
66170;BMP280;52971;44.024;20.456;2022-11-15T00:26:05;98397.00;;;8.41
66170;BMP280;52971;44.024;20.456;2022-11-15T00:28:31;98404.69;;;8.38
66170;BMP280;52971;44.024;20.456;2022-11-15T00:31:04;98400.50;;;8.32
66170;BMP280;52971;44.024;20.456;2022-11-15T00:33:30;98393.06;;;8.39
66170;BMP280;52971;44.024;20.456;2022-11-15T00:36:05;98392.75;;;8.45
66170;BMP280;52971;44.024;20.456;2022-11-15T00:38:36;98394.75;;;8.64
66170;BMP280;52971;44.024;20.456;2022-11-15T00:41:03;98399.59;;;8.46
66170;BMP280;52971;44.024;20.456;2022-11-15T00:43:29;98395.94;;;8.47
66170;BMP280;52971;44.024;20.456;2022-11-15T00:45:54;98388.78;;;8.48
66170;BMP280;52971;44.024;20.456;2022-11-15T00:48:20;98393.44;;;8.61
66170;BMP280;52971;44.024;20.456;2022-11-15T00:50:46;98379.38;;;8.71
66170;BMP280;52971;44.024;20.456;2022-11-15T00:53:11;98377.03;;;8.69
66170;BMP280;52971;44.024;20.456;2022-11-15T00:55:37;98376.16;;;8.79
66170;BMP280;52971;44.024;20.456;2022-11-15T00:58:02;98376.50;;;8.67
66170;BMP280;52971;44.024;20.456;2022-11-15T01:00:28;98379.16;;;8.67
66170;BMP280;52971;44.024;20.456;2022-11-15T01:02:53;98379.88;;;8.78
66170;BMP280;52971;44.024;20.456;2022-11-15T01:05:19;98382.25;;;8.79
66170;BMP280;52971;44.024;20.456;2022-11-15T01:07:44;98370.34;;;8.77
66170;BMP280;52971;44.024;20.456;2022-11-15T01:10:10;98364.97;;;8.87
66170;BMP280;52971;44.024;20.456;2022-11-15T01:12:35;98360.94;;;9.00
66170;BMP280;52971;44.024;20.456;2022-11-15T01:15:01;98356.19;;;8.97
66170;BMP280;52971;44.024;20.456;2022-11-15T01:17:26;98363.13;;;8.93
66170;BMP280;52971;44.024;20.456;2022-11-15T01:19:52;98373.69;;;8.87
66170;BMP280;52971;44.024;20.456;2022-11-15T01:22:17;98363.56;;;9.00
66170;BMP280;52971;44.024;20.456;2022-11-15T01:24:43;98360.06;;;9.04
66170;BMP280;52971;44.024;20.456;2022-11-15T01:27:08;98367.72;;;9.11
66170;BMP280;52971;44.024;20.456;2022-11-15T01:29:34;98365.56;;;9.13
66170;BMP280;52971;44.024;20.456;2022-11-15T01:31:59;98373.91;;;9.30
66170;BMP280;52971;44.024;20.456;2022-11-15T01:34:25;98362.84;;;9.23
66170;BMP280;52971;44.024;20.456;2022-11-15T01:36:51;98363.44;;;9.15
66170;BMP280;52971;44.024;20.456;2022-11-15T01:39:16;98360.34;;;9.08
66170;BMP280;52971;44.024;20.456;2022-11-15T01:41:42;98356.50;;;8.90
66170;BMP280;52971;44.024;20.456;2022-11-15T01:46:54;98352.41;;;9.08
66170;BMP280;52971;44.024;20.456;2022-11-15T01:49:22;98342.13;;;9.30
66170;BMP280;52971;44.024;20.456;2022-11-15T01:51:48;98342.78;;;9.17
66170;BMP280;52971;44.024;20.456;2022-11-15T01:54:17;98338.00;;;9.19
66170;BMP280;52971;44.024;20.456;2022-11-15T01:56:47;98353.13;;;9.42
66170;BMP280;52971;44.024;20.456;2022-11-15T01:59:15;98353.72;;;9.34
66170;BMP280;52971;44.024;20.456;2022-11-15T02:01:41;98344.88;;;9.20
66170;BMP280;52971;44.024;20.456;2022-11-15T02:04:11;98353.19;;;9.37
66170;BMP280;52971;44.024;20.456;2022-11-15T02:06:38;98358.06;;;9.25
66170;BMP280;52971;44.024;20.456;2022-11-15T02:09:05;98354.91;;;9.23
66170;BMP280;52971;44.024;20.456;2022-11-15T02:11:30;98343.53;;;9.22
66170;BMP280;52971;44.024;20.456;2022-11-15T02:13:56;98358.75;;;9.07
66170;BMP280;52971;44.024;20.456;2022-11-15T02:37:47;98355.25;;;9.40
66170;BMP280;52971;44.024;20.456;2022-11-15T02:40:26;98365.81;;;9.16
66170;BMP280;52971;44.024;20.456;2022-11-15T02:43:00;98370.72;;;9.28
66170;BMP280;52971;44.024;20.456;2022-11-15T02:45:51;98370.66;;;9.09
66170;BMP280;52971;44.024;20.456;2022-11-15T02:48:18;98367.41;;;9.12
66170;BMP280;52971;44.024;20.456;2022-11-15T02:50:46;98367.78;;;9.01
66170;BMP280;52971;44.024;20.456;2022-11-15T02:53:14;98369.78;;;9.14
66170;BMP280;52971;44.024;20.456;2022-11-15T02:55:49;98368.16;;;9.18
66170;BMP280;52971;44.024;20.456;2022-11-15T02:58:23;98368.94;;;9.47
66170;BMP280;52971;44.024;20.456;2022-11-15T03:11:49;98367.22;;;9.33
66170;BMP280;52971;44.024;20.456;2022-11-15T03:14:23;98361.34;;;9.41
66170;BMP280;52971;44.024;20.456;2022-11-15T03:19:33;98365.34;;;9.38
66170;BMP280;52971;44.024;20.456;2022-11-15T03:22:03;98366.56;;;9.22
66170;BMP280;52971;44.024;20.456;2022-11-15T03:24:31;98356.47;;;9.24
66170;BMP280;52971;44.024;20.456;2022-11-15T03:26:59;98365.19;;;9.53
66170;BMP280;52971;44.024;20.456;2022-11-15T03:29:31;98369.28;;;9.65
66170;BMP280;52971;44.024;20.456;2022-11-15T03:32:12;98368.84;;;9.57
66170;BMP280;52971;44.024;20.456;2022-11-15T03:34:48;98365.13;;;9.58
66170;BMP280;52971;44.024;20.456;2022-11-15T03:37:16;98364.72;;;9.46
66170;BMP280;52971;44.024;20.456;2022-11-15T03:39:42;98354.38;;;9.21
66170;BMP280;52971;44.024;20.456;2022-11-15T03:42:22;98353.69;;;9.10
66170;BMP280;52971;44.024;20.456;2022-11-15T03:44:55;98360.25;;;9.42
66170;BMP280;52971;44.024;20.456;2022-11-15T03:47:33;98348.25;;;9.25
66170;BMP280;52971;44.024;20.456;2022-11-15T03:50:03;98347.03;;;9.13
66170;BMP280;52971;44.024;20.456;2022-11-15T03:52:32;98352.28;;;9.18
66170;BMP280;52971;44.024;20.456;2022-11-15T03:55:00;98349.03;;;9.26
66170;BMP280;52971;44.024;20.456;2022-11-15T03:57:26;98360.97;;;9.23
66170;BMP280;52971;44.024;20.456;2022-11-15T03:59:52;98355.06;;;9.32
66170;BMP280;52971;44.024;20.456;2022-11-15T04:02:17;98348.25;;;9.25
66170;BMP280;52971;44.024;20.456;2022-11-15T04:04:43;98344.53;;;9.26
66170;BMP280;52971;44.024;20.456;2022-11-15T04:07:08;98345.34;;;9.27
66170;BMP280;52971;44.024;20.456;2022-11-15T04:09:34;98350.91;;;9.25
66170;BMP280;52971;44.024;20.456;2022-11-15T04:12:19;98339.69;;;9.34
66170;BMP280;52971;44.024;20.456;2022-11-15T04:15:00;98337.31;;;9.32
66170;BMP280;52971;44.024;20.456;2022-11-15T04:17:45;98339.69;;;9.34
66170;BMP280;52971;44.024;20.456;2022-11-15T04:23:17;98343.19;;;9.29
66170;BMP280;52971;44.024;20.456;2022-11-15T04:26:04;98341.28;;;9.35
66170;BMP280;52971;44.024;20.456;2022-11-15T04:28:30;98347.31;;;9.40
66170;BMP280;52971;44.024;20.456;2022-11-15T04:30:56;98341.53;;;9.33
66170;BMP280;52971;44.024;20.456;2022-11-15T04:33:21;98330.97;;;9.33
66170;BMP280;52971;44.024;20.456;2022-11-15T04:35:47;98333.16;;;9.50
66170;BMP280;52971;44.024;20.456;2022-11-15T04:38:32;98337.00;;;9.63
66170;BMP280;52971;44.024;20.456;2022-11-15T04:40:58;98335.22;;;9.58
66170;BMP280;52971;44.024;20.456;2022-11-15T04:43:24;98326.53;;;9.52
66170;BMP280;52971;44.024;20.456;2022-11-15T04:45:49;98330.94;;;9.38
66170;BMP280;52971;44.024;20.456;2022-11-15T04:48:15;98323.94;;;9.47
66170;BMP280;52971;44.024;20.456;2022-11-15T04:50:40;98321.06;;;9.44
66170;BMP280;52971;44.024;20.456;2022-11-15T04:53:06;98325.06;;;9.41
66170;BMP280;52971;44.024;20.456;2022-11-15T04:55:31;98318.97;;;9.41
66170;BMP280;52971;44.024;20.456;2022-11-15T04:58:01;98317.72;;;9.38
66170;BMP280;52971;44.024;20.456;2022-11-15T05:00:29;98310.06;;;9.32
66170;BMP280;52971;44.024;20.456;2022-11-15T05:02:55;98321.63;;;9.41
66170;BMP280;52971;44.024;20.456;2022-11-15T05:05:40;98310.78;;;9.66
66170;BMP280;52971;44.024;20.456;2022-11-15T05:08:05;98310.53;;;9.63
66170;BMP280;52971;44.024;20.456;2022-11-15T05:10:31;98306.44;;;9.51
66170;BMP280;52971;44.024;20.456;2022-11-15T05:12:56;98305.41;;;9.23
66170;BMP280;52971;44.024;20.456;2022-11-15T05:15:23;98305.78;;;9.36
66170;BMP280;52971;44.024;20.456;2022-11-15T05:17:48;98304.06;;;9.26
66170;BMP280;52971;44.024;20.456;2022-11-15T05:20:14;98294.09;;;9.42
66170;BMP280;52971;44.024;20.456;2022-11-15T05:22:40;98304.56;;;9.28
66170;BMP280;52971;44.024;20.456;2022-11-15T05:25:06;98290.03;;;9.25
66170;BMP280;52971;44.024;20.456;2022-11-15T05:27:32;98292.03;;;9.34
66170;BMP280;52971;44.024;20.456;2022-11-15T05:29:58;98297.63;;;9.32
66170;BMP280;52971;44.024;20.456;2022-11-15T05:32:23;98286.56;;;9.30
66170;BMP280;52971;44.024;20.456;2022-11-15T05:34:49;98280.66;;;9.33
66170;BMP280;52971;44.024;20.456;2022-11-15T05:37:16;98280.09;;;9.36
66170;BMP280;52971;44.024;20.456;2022-11-15T05:39:41;98275.50;;;9.23
66170;BMP280;52971;44.024;20.456;2022-11-15T05:42:10;98287.50;;;8.86
66170;BMP280;52971;44.024;20.456;2022-11-15T05:44:39;98282.69;;;9.17
66170;BMP280;52971;44.024;20.456;2022-11-15T05:47:08;98284.25;;;8.95
66170;BMP280;52971;44.024;20.456;2022-11-15T05:49:37;98282.84;;;9.02
66170;BMP280;52971;44.024;20.456;2022-11-15T05:52:05;98282.44;;;8.90
66170;BMP280;52971;44.024;20.456;2022-11-15T05:54:32;98289.41;;;9.10
66170;BMP280;52971;44.024;20.456;2022-11-15T05:56:58;98285.97;;;9.33
66170;BMP280;52971;44.024;20.456;2022-11-15T05:59:25;98277.41;;;9.41
66170;BMP280;52971;44.024;20.456;2022-11-15T06:01:51;98284.97;;;9.29
66170;BMP280;52971;44.024;20.456;2022-11-15T06:04:16;98287.44;;;9.44
66170;BMP280;52971;44.024;20.456;2022-11-15T06:06:41;98283.63;;;9.55
66170;BMP280;52971;44.024;20.456;2022-11-15T06:09:07;98290.63;;;9.65
66170;BMP280;52971;44.024;20.456;2022-11-15T06:11:32;98280.88;;;9.60
66170;BMP280;52971;44.024;20.456;2022-11-15T06:13:57;98281.41;;;9.63
66170;BMP280;52971;44.024;20.456;2022-11-15T06:16:23;98282.81;;;9.31
66170;BMP280;52971;44.024;20.456;2022-11-15T06:18:48;98285.06;;;9.19
66170;BMP280;52971;44.024;20.456;2022-11-15T06:21:14;98278.66;;;9.25
66170;BMP280;52971;44.024;20.456;2022-11-15T06:23:39;98291.84;;;9.30
66170;BMP280;52971;44.024;20.456;2022-11-15T06:26:05;98286.53;;;8.77
66170;BMP280;52971;44.024;20.456;2022-11-15T06:28:31;98279.25;;;8.93
66170;BMP280;52971;44.024;20.456;2022-11-15T06:31:09;98280.75;;;8.70
66170;BMP280;52971;44.024;20.456;2022-11-15T06:33:36;98284.41;;;8.74
66170;BMP280;52971;44.024;20.456;2022-11-15T06:36:03;98292.03;;;8.52
66170;BMP280;52971;44.024;20.456;2022-11-15T06:38:28;98292.84;;;8.47
66170;BMP280;52971;44.024;20.456;2022-11-15T06:40:54;98291.56;;;8.40
66170;BMP280;52971;44.024;20.456;2022-11-15T06:43:20;98287.19;;;8.59
66170;BMP280;52971;44.024;20.456;2022-11-15T06:45:45;98285.09;;;8.56
66170;BMP280;52971;44.024;20.456;2022-11-15T06:48:11;98286.25;;;8.79
66170;BMP280;52971;44.024;20.456;2022-11-15T06:50:36;98285.63;;;8.87
66170;BMP280;52971;44.024;20.456;2022-11-15T06:53:05;98290.47;;;9.09
66170;BMP280;52971;44.024;20.456;2022-11-15T06:55:30;98284.38;;;9.32
66170;BMP280;52971;44.024;20.456;2022-11-15T06:57:56;98281.97;;;9.36
66170;BMP280;52971;44.024;20.456;2022-11-15T07:00:21;98282.81;;;9.55
66170;BMP280;52971;44.024;20.456;2022-11-15T07:02:48;98287.19;;;9.65
66170;BMP280;52971;44.024;20.456;2022-11-15T07:05:14;98283.94;;;9.73
66170;BMP280;52971;44.024;20.456;2022-11-15T07:07:39;98273.22;;;9.83
66170;BMP280;52971;44.024;20.456;2022-11-15T07:10:06;98279.19;;;9.70
66170;BMP280;52971;44.024;20.456;2022-11-15T07:12:32;98283.84;;;9.78
66170;BMP280;52971;44.024;20.456;2022-11-15T07:14:57;98287.59;;;10.14
66170;BMP280;52971;44.024;20.456;2022-11-15T07:17:23;98283.38;;;10.13
66170;BMP280;52971;44.024;20.456;2022-11-15T07:19:48;98267.97;;;10.15
66170;BMP280;52971;44.024;20.456;2022-11-15T07:22:14;98273.66;;;10.27
66170;BMP280;52971;44.024;20.456;2022-11-15T07:24:39;98275.97;;;10.29
66170;BMP280;52971;44.024;20.456;2022-11-15T07:27:05;98273.13;;;10.25
66170;BMP280;52971;44.024;20.456;2022-11-15T07:29:30;98270.16;;;10.46
66170;BMP280;52971;44.024;20.456;2022-11-15T07:31:55;98271.56;;;10.57
66170;BMP280;52971;44.024;20.456;2022-11-15T07:34:21;98266.75;;;10.26
66170;BMP280;52971;44.024;20.456;2022-11-15T07:36:48;98266.75;;;9.89
66170;BMP280;52971;44.024;20.456;2022-11-15T07:39:13;98262.28;;;10.22
66170;BMP280;52971;44.024;20.456;2022-11-15T07:41:39;98265.53;;;10.19
66170;BMP280;52971;44.024;20.456;2022-11-15T07:44:05;98265.44;;;10.43
66170;BMP280;52971;44.024;20.456;2022-11-15T07:46:31;98265.25;;;10.53
66170;BMP280;52971;44.024;20.456;2022-11-15T07:48:56;98257.84;;;10.69
66170;BMP280;52971;44.024;20.456;2022-11-15T07:51:22;98251.78;;;11.09
66170;BMP280;52971;44.024;20.456;2022-11-15T07:53:48;98254.16;;;11.24
66170;BMP280;52971;44.024;20.456;2022-11-15T07:56:13;98254.66;;;10.85
66170;BMP280;52971;44.024;20.456;2022-11-15T07:58:39;98252.69;;;10.91
66170;BMP280;52971;44.024;20.456;2022-11-15T08:01:05;98253.16;;;10.93
66170;BMP280;52971;44.024;20.456;2022-11-15T08:03:31;98243.94;;;10.90
66170;BMP280;52971;44.024;20.456;2022-11-15T08:05:57;98249.72;;;10.92
66170;BMP280;52971;44.024;20.456;2022-11-15T08:08:22;98246.06;;;10.75
66170;BMP280;52971;44.024;20.456;2022-11-15T08:10:47;98246.47;;;10.95
66170;BMP280;52971;44.024;20.456;2022-11-15T08:13:13;98249.81;;;10.87
66170;BMP280;52971;44.024;20.456;2022-11-15T08:15:39;98243.63;;;10.46
66170;BMP280;52971;44.024;20.456;2022-11-15T08:18:15;98238.22;;;10.83
66170;BMP280;52971;44.024;20.456;2022-11-15T08:20:41;98239.56;;;10.67
66170;BMP280;52971;44.024;20.456;2022-11-15T08:23:07;98238.63;;;10.90
66170;BMP280;52971;44.024;20.456;2022-11-15T08:25:34;98241.78;;;11.20
66170;BMP280;52971;44.024;20.456;2022-11-15T08:28:02;98244.31;;;11.39
66170;BMP280;52971;44.024;20.456;2022-11-15T08:30:28;98233.59;;;11.80
66170;BMP280;52971;44.024;20.456;2022-11-15T08:32:56;98227.78;;;11.78
66170;BMP280;52971;44.024;20.456;2022-11-15T08:35:23;98241.75;;;11.47
66170;BMP280;52971;44.024;20.456;2022-11-15T08:37:49;98223.78;;;11.66
66170;BMP280;52971;44.024;20.456;2022-11-15T08:40:16;98225.13;;;11.78
66170;BMP280;52971;44.024;20.456;2022-11-15T08:42:42;98229.25;;;11.84
66170;BMP280;52971;44.024;20.456;2022-11-15T08:45:10;98234.78;;;11.74
66170;BMP280;52971;44.024;20.456;2022-11-15T08:47:35;98236.91;;;11.85
66170;BMP280;52971;44.024;20.456;2022-11-15T08:50:01;98230.47;;;12.22
66170;BMP280;52971;44.024;20.456;2022-11-15T08:52:26;98230.38;;;12.05
66170;BMP280;52971;44.024;20.456;2022-11-15T08:54:52;98221.53;;;11.96
66170;BMP280;52971;44.024;20.456;2022-11-15T08:57:17;98222.34;;;12.27
66170;BMP280;52971;44.024;20.456;2022-11-15T08:59:42;98219.06;;;12.53
66170;BMP280;52971;44.024;20.456;2022-11-15T09:02:11;98220.81;;;12.57
66170;BMP280;52971;44.024;20.456;2022-11-15T09:04:39;98217.22;;;12.62
66170;BMP280;52971;44.024;20.456;2022-11-15T09:07:04;98216.34;;;12.75
66170;BMP280;52971;44.024;20.456;2022-11-15T09:09:29;98216.06;;;12.85
66170;BMP280;52971;44.024;20.456;2022-11-15T09:11:55;98211.59;;;12.55
66170;BMP280;52971;44.024;20.456;2022-11-15T09:14:20;98212.88;;;12.35
66170;BMP280;52971;44.024;20.456;2022-11-15T09:16:45;98210.31;;;12.30
66170;BMP280;52971;44.024;20.456;2022-11-15T09:19:11;98209.19;;;12.22
66170;BMP280;52971;44.024;20.456;2022-11-15T09:21:37;98204.97;;;12.21
66170;BMP280;52971;44.024;20.456;2022-11-15T09:24:03;98206.53;;;12.22
66170;BMP280;52971;44.024;20.456;2022-11-15T09:26:29;98199.44;;;12.40
66170;BMP280;52971;44.024;20.456;2022-11-15T09:28:54;98195.75;;;12.19
66170;BMP280;52971;44.024;20.456;2022-11-15T09:31:20;98182.03;;;12.65
66170;BMP280;52971;44.024;20.456;2022-11-15T09:33:45;98187.06;;;12.66
66170;BMP280;52971;44.024;20.456;2022-11-15T09:36:11;98184.41;;;12.75
66170;BMP280;52971;44.024;20.456;2022-11-15T09:38:37;98176.31;;;12.80
66170;BMP280;52971;44.024;20.456;2022-11-15T09:43:45;98175.31;;;12.76
66170;BMP280;52971;44.024;20.456;2022-11-15T09:51:27;98158.91;;;12.83
66170;BMP280;52971;44.024;20.456;2022-11-15T09:56:28;98149.09;;;13.18
66170;BMP280;52971;44.024;20.456;2022-11-15T10:04:16;98138.13;;;13.62
66170;BMP280;52971;44.024;20.456;2022-11-15T10:06:55;98138.00;;;13.59
66170;BMP280;52971;44.024;20.456;2022-11-15T10:09:31;98143.28;;;13.07
66170;BMP280;52971;44.024;20.456;2022-11-15T10:11:59;98133.94;;;13.27
66170;BMP280;52971;44.024;20.456;2022-11-15T10:14:27;98138.00;;;13.59
66170;BMP280;52971;44.024;20.456;2022-11-15T10:20:14;98132.78;;;13.62
66170;BMP280;52971;44.024;20.456;2022-11-15T10:22:46;98133.34;;;13.94
66170;BMP280;52971;44.024;20.456;2022-11-15T10:25:22;98129.66;;;13.77
66170;BMP280;52971;44.024;20.456;2022-11-15T10:28:20;98124.94;;;13.74
66170;BMP280;52971;44.024;20.456;2022-11-15T10:30:48;98121.91;;;14.02
66170;BMP280;52971;44.024;20.456;2022-11-15T10:35:48;98105.63;;;14.83
66170;BMP280;52971;44.024;20.456;2022-11-15T10:38:13;98099.19;;;15.25
66170;BMP280;52971;44.024;20.456;2022-11-15T10:40:40;98102.38;;;15.52
66170;BMP280;52971;44.024;20.456;2022-11-15T10:43:17;98093.94;;;15.29
66170;BMP280;52971;44.024;20.456;2022-11-15T10:45:43;98088.97;;;15.40
66170;BMP280;52971;44.024;20.456;2022-11-15T10:50:41;98085.16;;;15.73
66170;BMP280;52971;44.024;20.456;2022-11-15T10:53:29;98081.53;;;16.39
66170;BMP280;52971;44.024;20.456;2022-11-15T10:56:00;98072.69;;;17.18
66170;BMP280;52971;44.024;20.456;2022-11-15T10:58:36;98056.50;;;17.15
66170;BMP280;52971;44.024;20.456;2022-11-15T11:01:10;98065.34;;;16.87
66170;BMP280;52971;44.024;20.456;2022-11-15T11:03:37;98057.56;;;16.30
66170;BMP280;52971;44.024;20.456;2022-11-15T11:08:34;98051.63;;;17.33
66170;BMP280;52971;44.024;20.456;2022-11-15T11:11:00;98045.47;;;17.95
66170;BMP280;52971;44.024;20.456;2022-11-15T11:13:39;98052.03;;;18.67
66170;BMP280;52971;44.024;20.456;2022-11-15T11:21:10;98041.53;;;22.95
66170;BMP280;52971;44.024;20.456;2022-11-15T11:23:52;98039.56;;;23.80
66170;BMP280;52971;44.024;20.456;2022-11-15T11:26:26;98020.38;;;24.33
66170;BMP280;52971;44.024;20.456;2022-11-15T11:31:37;98026.06;;;22.78
66170;BMP280;52971;44.024;20.456;2022-11-15T11:37:32;98006.66;;;22.30
66170;BMP280;52971;44.024;20.456;2022-11-15T11:48:12;98011.41;;;18.15
66170;BMP280;52971;44.024;20.456;2022-11-15T11:50:40;98016.69;;;16.85
66170;BMP280;52971;44.024;20.456;2022-11-15T11:53:25;98015.78;;;17.09
66170;BMP280;52971;44.024;20.456;2022-11-15T11:55:53;98004.44;;;16.32
66170;BMP280;52971;44.024;20.456;2022-11-15T11:58:47;98006.22;;;16.40
66170;BMP280;52971;44.024;20.456;2022-11-15T12:01:38;97999.25;;;17.07
66170;BMP280;52971;44.024;20.456;2022-11-15T12:04:37;98000.31;;;17.97
66170;BMP280;52971;44.024;20.456;2022-11-15T12:07:21;97997.47;;;17.74
66170;BMP280;52971;44.024;20.456;2022-11-15T12:09:57;97999.19;;;17.51
66170;BMP280;52971;44.024;20.456;2022-11-15T12:15:31;97987.31;;;16.61
66170;BMP280;52971;44.024;20.456;2022-11-15T12:17:57;97986.56;;;15.84
66170;BMP280;52971;44.024;20.456;2022-11-15T12:20:25;97978.53;;;16.08
66170;BMP280;52971;44.024;20.456;2022-11-15T12:23:11;97973.88;;;16.89
66170;BMP280;52971;44.024;20.456;2022-11-15T12:31:06;97974.13;;;16.16
66170;BMP280;52971;44.024;20.456;2022-11-15T12:33:38;97968.94;;;16.20
66170;BMP280;52971;44.024;20.456;2022-11-15T12:36:09;97964.47;;;16.11
66170;BMP280;52971;44.024;20.456;2022-11-15T12:38:57;97962.81;;;15.95
66170;BMP280;52971;44.024;20.456;2022-11-15T12:43:51;97962.56;;;16.24
66170;BMP280;52971;44.024;20.456;2022-11-15T13:02:25;97954.81;;;16.90
66170;BMP280;52971;44.024;20.456;2022-11-15T13:04:53;97937.88;;;16.86
66170;BMP280;52971;44.024;20.456;2022-11-15T13:10:28;97942.03;;;16.56
66170;BMP280;52971;44.024;20.456;2022-11-15T13:28:02;97941.25;;;16.56
66170;BMP280;52971;44.024;20.456;2022-11-15T13:30:30;97928.91;;;17.10
66170;BMP280;52971;44.024;20.456;2022-11-15T13:32:56;97923.09;;;17.40
66170;BMP280;52971;44.024;20.456;2022-11-15T13:35:26;97917.88;;;17.62
66170;BMP280;52971;44.024;20.456;2022-11-15T13:37:54;97914.47;;;17.65
66170;BMP280;52971;44.024;20.456;2022-11-15T13:40:24;97907.28;;;17.19
66170;BMP280;52971;44.024;20.456;2022-11-15T13:42:53;97913.78;;;17.02
66170;BMP280;52971;44.024;20.456;2022-11-15T13:45:19;97912.09;;;16.66
66170;BMP280;52971;44.024;20.456;2022-11-15T13:47:44;97900.38;;;16.59
66170;BMP280;52971;44.024;20.456;2022-11-15T13:50:10;97901.78;;;16.53
66170;BMP280;52971;44.024;20.456;2022-11-15T13:52:36;97902.91;;;16.11
66170;BMP280;52971;44.024;20.456;2022-11-15T14:02:57;97897.66;;;15.63
66170;BMP280;52971;44.024;20.456;2022-11-15T14:05:24;97897.56;;;15.35
66170;BMP280;52971;44.024;20.456;2022-11-15T14:10:42;97903.91;;;14.73
66170;BMP280;52971;44.024;20.456;2022-11-15T14:13:11;97906.41;;;14.90
66170;BMP280;52971;44.024;20.456;2022-11-15T14:15:51;97897.19;;;14.88
66170;BMP280;52971;44.024;20.456;2022-11-15T14:21:06;97903.59;;;14.75
66170;BMP280;52971;44.024;20.456;2022-11-15T14:23:32;97907.72;;;14.51
66170;BMP280;52971;44.024;20.456;2022-11-15T14:25:59;97902.47;;;14.76
66170;BMP280;52971;44.024;20.456;2022-11-15T14:30:53;97893.66;;;15.20
66170;BMP280;52971;44.024;20.456;2022-11-15T14:33:23;97895.06;;;14.93
66170;BMP280;52971;44.024;20.456;2022-11-15T14:35:53;97884.81;;;14.95
66170;BMP280;52971;44.024;20.456;2022-11-15T14:38:19;97871.38;;;15.04
66170;BMP280;52971;44.024;20.456;2022-11-15T14:40:44;97870.06;;;15.10
66170;BMP280;52971;44.024;20.456;2022-11-15T14:43:11;97870.75;;;15.31
66170;BMP280;52971;44.024;20.456;2022-11-15T14:45:37;97875.53;;;15.38
66170;BMP280;52971;44.024;20.456;2022-11-15T14:48:03;97880.88;;;15.38
66170;BMP280;52971;44.024;20.456;2022-11-15T14:50:29;97875.84;;;15.24
66170;BMP280;52971;44.024;20.456;2022-11-15T14:52:54;97879.44;;;15.16
66170;BMP280;52971;44.024;20.456;2022-11-15T14:55:56;97871.94;;;15.34
66170;BMP280;52971;44.024;20.456;2022-11-15T14:58:14;97872.84;;;15.26
66170;BMP280;52971;44.024;20.456;2022-11-15T15:00:41;97879.28;;;15.13
66170;BMP280;52971;44.024;20.456;2022-11-15T15:03:07;97877.84;;;15.27
66170;BMP280;52971;44.024;20.456;2022-11-15T15:05:42;97885.72;;;14.87
66170;BMP280;52971;44.024;20.456;2022-11-15T15:08:09;97878.50;;;14.88
66170;BMP280;52971;44.024;20.456;2022-11-15T15:10:40;97876.75;;;14.71
66170;BMP280;52971;44.024;20.456;2022-11-15T15:13:12;97875.53;;;14.69
66170;BMP280;52971;44.024;20.456;2022-11-15T15:15:40;97873.34;;;14.71
66170;BMP280;52971;44.024;20.456;2022-11-15T15:18:05;97873.72;;;14.60
66170;BMP280;52971;44.024;20.456;2022-11-15T15:20:34;97882.59;;;14.52
66170;BMP280;52971;44.024;20.456;2022-11-15T15:23:00;97878.63;;;14.38
66170;BMP280;52971;44.024;20.456;2022-11-15T15:25:28;97875.41;;;14.32
66170;BMP280;52971;44.024;20.456;2022-11-15T15:27:54;97877.53;;;14.39
66170;BMP280;52971;44.024;20.456;2022-11-15T15:30:21;97874.22;;;14.21
66170;BMP280;52971;44.024;20.456;2022-11-15T15:32:47;97872.88;;;14.15
66170;BMP280;52971;44.024;20.456;2022-11-15T15:35:13;97876.56;;;14.02
66170;BMP280;52971;44.024;20.456;2022-11-15T15:37:39;97877.59;;;13.88
66170;BMP280;52971;44.024;20.456;2022-11-15T15:40:13;97881.25;;;13.84
66170;BMP280;52971;44.024;20.456;2022-11-15T15:42:39;97876.63;;;13.64
66170;BMP280;52971;44.024;20.456;2022-11-15T15:45:04;97879.72;;;13.74
66170;BMP280;52971;44.024;20.456;2022-11-15T15:47:30;97883.28;;;13.49
66170;BMP280;52971;44.024;20.456;2022-11-15T15:49:56;97878.94;;;13.44
66170;BMP280;52971;44.024;20.456;2022-11-15T15:52:22;97887.31;;;13.26
66170;BMP280;52971;44.024;20.456;2022-11-15T15:54:47;97883.09;;;13.16
66170;BMP280;52971;44.024;20.456;2022-11-15T15:57:13;97875.25;;;13.28
66170;BMP280;52971;44.024;20.456;2022-11-15T15:59:39;97875.78;;;13.04
66170;BMP280;52971;44.024;20.456;2022-11-15T16:02:05;97870.53;;;12.78
66170;BMP280;52971;44.024;20.456;2022-11-15T16:04:31;97873.97;;;12.70
66170;BMP280;52971;44.024;20.456;2022-11-15T16:06:59;97880.72;;;12.68
66170;BMP280;52971;44.024;20.456;2022-11-15T16:09:25;97879.63;;;12.52
66170;BMP280;52971;44.024;20.456;2022-11-15T16:12:09;97882.75;;;12.45
66170;BMP280;52971;44.024;20.456;2022-11-15T16:14:35;97887.47;;;12.48
66170;BMP280;52971;44.024;20.456;2022-11-15T16:17:01;97885.09;;;12.29
66170;BMP280;52971;44.024;20.456;2022-11-15T16:19:26;97879.78;;;12.29
66170;BMP280;52971;44.024;20.456;2022-11-15T16:21:52;97883.06;;;12.35
66170;BMP280;52971;44.024;20.456;2022-11-15T16:24:18;97875.25;;;12.38
66170;BMP280;52971;44.024;20.456;2022-11-15T16:26:45;97882.31;;;12.26
66170;BMP280;52971;44.024;20.456;2022-11-15T16:29:10;97872.91;;;12.11
66170;BMP280;52971;44.024;20.456;2022-11-15T16:31:36;97865.50;;;11.99
66170;BMP280;52971;44.024;20.456;2022-11-15T16:34:02;97872.41;;;12.00
66170;BMP280;52971;44.024;20.456;2022-11-15T16:36:31;97865.06;;;12.06